createdAt,value
2019-04-24T00:00:12.988Z,78.17
2019-04-24T00:01:05.751Z,79.18
2019-04-24T00:02:23.094Z,78.70
2019-04-24T00:04:09.179Z,78.03
2019-04-24T00:05:09.281Z,78.70
2019-04-24T00:06:57.427Z,79.08
2019-04-24T00:07:57.371Z,80.29
2019-04-24T00:10:02.959Z,79.62
2019-04-24T00:11:19.151Z,80.10
2019-04-24T00:13:03.250Z,81.44
2019-04-24T00:14:06.910Z,81.21
2019-04-24T00:15:51.422Z,79.62
2019-04-24T00:17:06.360Z,80.58
2019-04-24T00:18:19.545Z,80.67
2019-04-24T00:19:10.645Z,80.29
2019-04-24T00:20:09.833Z,80.48
2019-04-24T00:20:59.870Z,81.40
2019-04-24T00:23:09.682Z,82.35
2019-04-24T00:25:59.112Z,83.56
2019-04-24T00:27:04.852Z,83.94
2019-04-24T00:29:11.804Z,83.94
2019-04-24T00:30:01.456Z,84.61
2019-04-24T00:32:02.355Z,84.61
2019-04-24T00:33:09.419Z,85.33
2019-04-24T00:35:08.057Z,85.90
2019-04-24T00:36:20.239Z,85.66
2019-04-24T00:37:09.972Z,84.80
2019-04-24T00:38:12.609Z,84.13
2019-04-24T00:39:58.460Z,84.70
2019-04-24T00:41:16.221Z,84.70
2019-04-24T00:42:14.904Z,84.70
2019-04-24T00:43:20.592Z,83.17
2019-04-24T00:44:11.482Z,82.89
2019-04-24T00:45:07.337Z,82.89
2019-04-24T00:46:19.587Z,83.27
2019-04-24T00:48:08.096Z,84.23
2019-04-24T00:49:04.321Z,84.28
2019-04-24T00:49:57.644Z,85.09
2019-04-24T00:51:57.378Z,86.00
2019-04-24T00:53:33.979Z,86.47
2019-04-24T00:55:00.582Z,86.96
2019-04-24T00:57:12.238Z,87.68
2019-04-24T00:59:30.688Z,88.15
2019-04-24T01:00:34.805Z,88.34
2019-04-24T01:03:45.662Z,88.44
2019-04-24T01:05:41.534Z,89.49
2019-04-24T01:06:27.521Z,89.30
2019-04-24T01:07:42.607Z,89.49
2019-04-24T01:08:24.059Z,89.87
2019-04-24T01:09:45.567Z,89.97
2019-04-24T01:10:25.891Z,90.02
2019-04-24T01:12:40.054Z,90.31
2019-04-24T01:14:45.240Z,91.26
2019-04-24T01:16:27.147Z,91.55
2019-04-24T01:17:31.947Z,91.83
2019-04-24T01:18:30.781Z,92.41
2019-04-24T01:19:28.065Z,92.12
2019-04-24T01:24:53.019Z,89.30
2019-04-24T01:25:51.988Z,89.11
2019-04-24T01:31:22.925Z,87.48
2019-04-24T01:33:19.808Z,89.01
2019-04-24T01:37:30.533Z,90.31
2019-04-24T01:38:36.084Z,90.50
2019-04-24T01:40:31.999Z,90.97
2019-04-24T01:41:27.672Z,91.07
2019-04-24T01:42:30.287Z,90.50
2019-04-24T01:44:31.647Z,91.26
2019-04-24T01:50:29.525Z,93.98
2019-04-24T01:51:29.259Z,93.60
2019-04-24T01:53:37.830Z,94.17
2019-04-24T01:54:30.133Z,94.56
2019-04-24T01:55:22.345Z,94.74
2019-04-24T01:56:32.384Z,94.46
2019-04-24T01:57:26.604Z,94.07
2019-04-24T01:58:30.487Z,94.07
2019-04-24T01:59:42.296Z,94.56
2019-04-24T02:00:35.601Z,93.60
2019-04-24T02:01:32.005Z,93.88
2019-04-24T02:03:20.479Z,94.56
2019-04-24T02:04:32.172Z,94.65
2019-04-24T02:05:20.350Z,95.32
2019-04-24T02:06:33.415Z,94.74
2019-04-24T02:07:43.389Z,95.32
2019-04-24T02:11:36.860Z,95.65
2019-04-24T02:12:38.983Z,96.13
2019-04-24T02:16:32.507Z,96.89
2019-04-24T02:17:32.453Z,96.89
2019-04-24T02:18:38.392Z,96.80
2019-04-24T02:19:24.290Z,96.70
2019-04-24T02:21:28.699Z,97.17
2019-04-24T02:22:37.565Z,96.89
2019-04-24T02:23:29.553Z,97.27
2019-04-24T02:24:32.094Z,97.46
2019-04-24T02:25:36.001Z,97.08
2019-04-24T02:26:30.545Z,96.80
2019-04-24T02:27:29.155Z,97.08
2019-04-24T02:28:28.546Z,97.08
2019-04-24T02:34:37.589Z,98.03
2019-04-24T02:35:47.152Z,98.22
2019-04-24T02:36:41.756Z,97.66
2019-04-24T02:38:39.696Z,97.56
2019-04-24T02:39:42.931Z,97.37
2019-04-24T02:41:44.360Z,97.27
2019-04-24T02:47:22.591Z,95.61
2019-04-24T02:48:38.128Z,95.37
2019-04-24T03:14:40.694Z,99.22
2019-04-24T03:15:37.361Z,99.32
2019-04-24T03:17:37.421Z,99.04
2019-04-24T03:18:35.364Z,99.32
2019-04-24T03:20:55.231Z,99.80
2019-04-24T03:22:01.867Z,99.32
2019-04-24T03:23:36.232Z,98.85
2019-04-24T03:25:59.767Z,99.32
2019-04-24T03:26:59.858Z,98.13
2019-04-24T03:27:36.588Z,98.32
2019-04-24T03:28:32.723Z,98.42
2019-04-24T03:30:47.356Z,97.80
2019-04-24T03:34:10.907Z,98.46
2019-04-24T03:41:47.324Z,99.70
2019-04-24T03:44:25.261Z,99.99
2019-04-24T03:47:18.107Z,99.99
2019-04-24T03:48:09.715Z,99.99
2019-04-24T03:48:57.569Z,99.99
2019-04-24T03:50:01.566Z,99.99
2019-04-24T03:55:09.945Z,99.99
2019-04-24T03:58:06.463Z,99.99
2019-04-24T03:59:03.769Z,99.99
2019-04-24T04:00:23.992Z,99.99
2019-04-24T04:04:09.761Z,99.99
2019-04-24T04:06:14.604Z,99.99
2019-04-24T04:06:59.368Z,99.99
2019-04-24T04:08:04.364Z,99.99
2019-04-24T04:10:51.886Z,99.99
2019-04-24T04:12:10.839Z,99.99
2019-04-24T04:15:02.826Z,99.99
2019-04-24T04:15:51.890Z,99.99
2019-04-24T04:16:58.803Z,99.99
2019-04-24T04:19:48.965Z,99.99
2019-04-24T04:28:44.470Z,98.94
2019-04-24T04:34:39.608Z,97.75
2019-04-24T04:35:51.639Z,97.46
2019-04-24T04:37:46.585Z,96.03
2019-04-24T04:38:43.530Z,96.32
2019-04-24T04:39:40.138Z,96.80
2019-04-24T04:42:51.936Z,95.75
2019-04-24T04:44:55.013Z,95.84
2019-04-24T04:46:54.864Z,95.37
2019-04-24T04:47:30.216Z,94.89
2019-04-24T04:51:41.314Z,96.80
2019-04-24T04:53:19.265Z,96.61
2019-04-24T04:53:43.228Z,96.61
2019-04-24T04:55:34.583Z,96.80
2019-04-24T04:57:54.232Z,95.84
2019-04-24T04:58:39.747Z,94.98
2019-04-24T04:59:47.203Z,93.98
2019-04-24T05:00:52.737Z,93.70
2019-04-24T05:02:55.790Z,93.41
2019-04-24T05:03:37.529Z,93.41
2019-04-24T05:04:45.902Z,92.55
2019-04-24T05:06:04.456Z,91.88
2019-04-24T05:06:50.384Z,91.64
2019-04-24T05:09:22.555Z,92.41
2019-04-24T05:09:51.019Z,93.36
2019-04-24T05:10:32.956Z,94.51
2019-04-24T05:12:40.263Z,95.08
2019-04-24T05:13:37.572Z,95.51
2019-04-24T05:19:10.642Z,93.26
2019-04-24T05:21:50.950Z,94.03
2019-04-24T05:23:33.853Z,92.60
2019-04-24T05:29:01.344Z,92.02
2019-04-24T05:45:22.925Z,91.02
2019-04-24T06:08:56.933Z,88.96
2019-04-24T06:24:31.591Z,86.33
2019-04-24T06:25:32.719Z,87.62
2019-04-24T06:26:20.821Z,87.76
2019-04-24T06:27:14.285Z,87.71
2019-04-24T06:28:30.343Z,87.14
2019-04-24T06:30:26.320Z,87.33
2019-04-24T06:35:48.036Z,85.99
2019-04-24T06:36:53.291Z,85.89
2019-04-24T06:38:26.926Z,85.89
2019-04-24T06:39:35.946Z,85.32
2019-04-24T06:40:39.577Z,85.41
2019-04-24T06:41:43.213Z,85.65
2019-04-24T06:43:39.721Z,85.36
2019-04-24T06:44:51.377Z,84.22
2019-04-24T06:45:31.150Z,84.69
2019-04-24T06:46:40.482Z,84.41
2019-04-24T06:48:19.436Z,83.78
2019-04-24T06:50:52.861Z,82.73
2019-04-24T06:51:23.649Z,83.11
2019-04-24T06:52:38.132Z,82.53
2019-04-24T06:53:27.802Z,82.92
2019-04-24T06:54:21.731Z,83.30
2019-04-24T06:55:43.734Z,82.92
2019-04-24T06:58:06.585Z,82.63
2019-04-24T07:02:50.919Z,81.43
2019-04-24T07:06:05.037Z,81.81
2019-04-24T07:09:41.311Z,81.33
2019-04-24T07:10:56.100Z,80.47
2019-04-24T07:11:36.171Z,80.89
2019-04-24T07:12:35.178Z,82.14
2019-04-24T07:13:49.344Z,81.75
2019-04-24T07:16:29.499Z,79.26
2019-04-24T07:19:12.764Z,79.74
2019-04-24T07:20:16.063Z,79.26
2019-04-24T07:21:13.966Z,78.49
2019-04-24T07:22:19.260Z,79.16
2019-04-24T07:24:19.212Z,78.49
2019-04-24T07:27:09.200Z,79.68
2019-04-24T07:28:10.941Z,78.34
2019-04-24T07:29:13.930Z,78.15
2019-04-24T07:30:06.358Z,77.95
2019-04-24T07:32:03.941Z,78.15
2019-04-24T07:33:07.267Z,77.86
2019-04-24T07:34:27.869Z,78.96
2019-04-24T07:35:07.750Z,79.14
2019-04-24T07:36:55.722Z,75.79
2019-04-24T07:39:00.250Z,76.07
2019-04-24T07:41:08.179Z,77.42
2019-04-24T07:42:05.846Z,78.47
2019-04-24T07:43:13.529Z,77.13
2019-04-24T07:44:20.278Z,77.36
2019-04-24T07:46:16.906Z,76.98
2019-04-24T07:47:16.843Z,76.88
2019-04-24T07:48:03.037Z,74.96
2019-04-24T07:49:58.652Z,73.33
2019-04-24T07:54:24.282Z,72.79
2019-04-24T07:54:59.564Z,73.27
2019-04-24T07:56:10.781Z,74.23
2019-04-24T07:57:42.244Z,74.04
2019-04-24T07:59:59.651Z,74.52
2019-04-24T08:01:59.352Z,74.43
2019-04-24T08:02:35.694Z,75.29
2019-04-24T08:03:49.126Z,74.23
2019-04-24T08:05:37.175Z,77.69
2019-04-24T08:06:32.422Z,76.92
2019-04-24T08:10:26.826Z,77.01
2019-04-24T08:11:09.145Z,75.52
2019-04-24T08:12:20.088Z,74.46
2019-04-24T08:14:30.513Z,74.04
2019-04-24T08:16:11.338Z,74.33
2019-04-24T08:19:22.669Z,73.50
2019-04-24T08:22:26.730Z,72.44
2019-04-24T08:25:52.278Z,71.87
2019-04-24T08:26:59.952Z,76.19
2019-04-24T08:28:52.198Z,70.52
2019-04-24T08:29:55.436Z,69.95
2019-04-24T08:35:10.056Z,71.96
2019-04-24T08:36:54.954Z,73.63
2019-04-24T08:39:48.939Z,70.65
2019-04-24T08:43:09.971Z,70.56
2019-04-24T08:43:56.605Z,71.42
2019-04-24T08:45:06.393Z,70.52
2019-04-24T08:45:44.736Z,71.48
2019-04-24T08:49:05.463Z,71.71
2019-04-24T08:50:01.200Z,71.42
2019-04-24T08:51:13.019Z,71.23
2019-04-24T08:54:59.083Z,72.34
2019-04-24T08:55:46.985Z,70.65
2019-04-24T08:56:54.069Z,68.98
2019-04-24T09:00:53.584Z,68.44
2019-04-24T09:02:57.922Z,69.85
2019-04-24T09:04:55.783Z,73.83
2019-04-24T09:06:47.583Z,70.37
2019-04-24T09:07:59.342Z,69.31
2019-04-24T09:08:52.064Z,69.40
2019-04-24T09:09:46.195Z,68.73
2019-04-24T09:13:04.562Z,69.31
2019-04-24T09:13:54.471Z,68.92
2019-04-24T09:14:39.701Z,69.40
2019-04-24T09:17:51.830Z,69.34
2019-04-24T09:18:58.721Z,69.06
2019-04-24T09:19:49.536Z,68.29
2019-04-24T09:20:52.552Z,68.67
2019-04-24T09:21:45.542Z,68.38
2019-04-24T09:23:03.851Z,69.53
2019-04-24T09:24:19.220Z,70.11
2019-04-24T09:24:54.743Z,71.75
2019-04-24T09:26:55.244Z,70.62
2019-04-24T09:28:48.476Z,68.70
2019-04-24T09:30:38.743Z,69.85
2019-04-24T09:31:41.628Z,69.18
2019-04-24T09:33:47.588Z,70.92
2019-04-24T09:36:55.674Z,69.38
2019-04-24T09:37:55.441Z,69.95
2019-04-24T09:40:22.189Z,69.38
2019-04-24T09:42:17.056Z,70.72
2019-04-24T09:54:35.786Z,70.95
2019-04-24T09:55:21.690Z,71.47
2019-04-24T09:56:23.051Z,71.76
2019-04-24T09:58:22.277Z,68.96
2019-04-24T09:59:24.600Z,68.77
2019-04-24T10:00:19.707Z,68.19
2019-04-24T10:02:28.062Z,67.90
2019-04-24T10:04:13.785Z,67.33
2019-04-24T10:05:15.876Z,67.13
2019-04-24T10:09:55.828Z,67.46
2019-04-24T10:10:49.987Z,68.04
2019-04-24T10:17:02.002Z,66.30
2019-04-24T10:17:57.756Z,68.90
2019-04-24T10:19:11.742Z,68.23
2019-04-24T10:20:35.824Z,68.99
2019-04-24T10:21:49.014Z,67.78
2019-04-24T10:24:01.083Z,67.36
2019-04-24T10:24:59.830Z,67.94
2019-04-24T10:25:38.613Z,68.42
2019-04-24T10:26:48.150Z,68.90
2019-04-24T10:29:48.751Z,65.69
2019-04-24T10:30:54.857Z,63.24
2019-04-24T10:32:06.123Z,63.15
2019-04-24T10:32:53.142Z,63.73
2019-04-24T10:33:55.692Z,64.40
2019-04-24T10:34:47.703Z,64.98
2019-04-24T10:36:01.826Z,66.14
2019-04-24T10:36:57.451Z,65.27
2019-04-24T10:38:17.203Z,64.98
2019-04-24T10:38:44.493Z,64.59
2019-04-24T10:41:55.215Z,64.72
2019-04-24T10:42:48.694Z,66.36
2019-04-24T10:43:44.403Z,65.20
2019-04-24T10:44:48.218Z,64.66
2019-04-24T10:45:58.306Z,63.89
2019-04-24T10:48:44.584Z,65.11
2019-04-24T10:52:03.638Z,63.47
2019-04-24T10:52:51.671Z,63.47
2019-04-24T10:54:50.665Z,65.82
2019-04-24T10:56:02.561Z,64.47
2019-04-24T10:56:47.156Z,62.82
2019-04-24T10:57:56.891Z,61.96
2019-04-24T10:59:49.535Z,60.51
2019-04-24T11:00:59.071Z,59.74
2019-04-24T11:02:02.593Z,59.38
2019-04-24T11:03:57.387Z,59.35
2019-04-24T11:04:59.993Z,60.31
2019-04-24T11:07:01.451Z,58.80
2019-04-24T11:07:53.570Z,59.19
2019-04-24T11:13:51.686Z,58.90
2019-04-24T11:17:55.741Z,59.70
2019-04-24T11:21:07.220Z,61.66
2019-04-24T11:21:54.952Z,59.70
2019-04-24T11:22:59.677Z,60.69
2019-04-24T11:28:40.629Z,58.98
2019-04-24T11:30:18.703Z,57.63
2019-04-24T11:31:45.495Z,58.44
2019-04-24T11:32:31.125Z,56.34
2019-04-24T11:33:49.280Z,55.15
2019-04-24T11:36:53.197Z,54.71
2019-04-24T11:37:38.236Z,54.52
2019-04-24T11:39:57.362Z,55.49
2019-04-24T11:40:38.554Z,54.21
2019-04-24T11:41:37.233Z,54.52
2019-04-24T11:42:30.698Z,53.87
2019-04-24T11:43:30.933Z,53.83
2019-04-24T11:44:28.087Z,52.11
2019-04-24T11:49:29.672Z,48.73
2019-04-24T11:52:57.306Z,47.66
2019-04-24T11:53:24.565Z,48.69
2019-04-24T11:56:10.366Z,48.73
2019-04-24T11:57:27.192Z,51.11
2019-04-24T11:58:47.947Z,46.74
2019-04-24T11:59:53.977Z,47.15
2019-04-24T12:02:09.189Z,46.98
2019-04-24T12:02:52.903Z,47.27
2019-04-24T12:03:56.612Z,46.86
2019-04-24T12:05:02.655Z,46.30
2019-04-24T12:06:54.919Z,47.71
2019-04-24T12:08:59.528Z,47.69
2019-04-24T12:11:12.938Z,48.49
2019-04-24T12:11:56.640Z,48.03
2019-04-24T12:13:02.947Z,47.81
2019-04-24T12:13:58.399Z,49.46
2019-04-24T12:14:52.763Z,49.87
2019-04-24T12:16:49.809Z,47.74
2019-04-24T12:18:03.769Z,49.19
2019-04-24T12:21:11.385Z,46.94
2019-04-24T12:24:53.739Z,48.71
2019-04-24T12:36:23.111Z,45.62
2019-04-24T12:37:24.308Z,46.42
2019-04-24T12:39:14.393Z,43.99
2019-04-24T12:40:25.297Z,43.71
2019-04-24T12:42:35.209Z,44.84
2019-04-24T12:43:29.139Z,44.16
2019-04-24T12:48:17.233Z,45.67
2019-04-24T12:49:21.572Z,45.17
2019-04-24T12:50:31.481Z,45.38
2019-04-24T12:51:20.408Z,45.11
2019-04-24T12:52:13.954Z,46.32
2019-04-24T12:54:39.652Z,46.37
2019-04-24T12:55:31.369Z,43.54
2019-04-24T12:56:34.757Z,45.39
2019-04-24T12:57:25.033Z,45.12
2019-04-24T12:58:28.780Z,42.66
2019-04-24T12:59:30.936Z,42.96
2019-04-24T13:01:19.974Z,42.86
2019-04-24T13:03:25.808Z,43.57
2019-04-24T13:05:28.464Z,41.60
2019-04-24T13:07:11.140Z,42.69
2019-04-24T13:09:25.492Z,42.73
2019-04-24T13:10:53.358Z,42.54
2019-04-24T13:11:22.602Z,43.88
2019-04-24T13:12:41.712Z,42.90
2019-04-24T13:13:21.980Z,42.98
2019-04-24T13:14:30.333Z,42.79
2019-04-24T13:16:29.115Z,43.47
2019-04-24T13:17:48.183Z,43.44
2019-04-24T13:18:15.183Z,44.48
2019-04-24T13:19:52.559Z,45.40
2019-04-24T13:20:52.855Z,44.96
2019-04-24T13:21:57.129Z,44.69
2019-04-24T13:23:00.379Z,45.25
2019-04-24T13:24:05.469Z,44.94
2019-04-24T13:25:13.486Z,44.94
2019-04-24T13:26:21.499Z,46.28
2019-04-24T13:27:31.963Z,47.34
2019-04-24T13:28:30.469Z,46.71
2019-04-24T13:29:18.583Z,44.38
2019-04-24T13:30:24.144Z,44.10
2019-04-24T13:32:26.063Z,45.29
2019-04-24T13:34:36.593Z,44.15
2019-04-24T13:36:43.542Z,43.37
2019-04-24T13:37:26.912Z,43.57
2019-04-24T13:38:28.453Z,43.32
2019-04-24T13:39:25.076Z,41.20
2019-04-24T13:40:28.062Z,41.50
2019-04-24T13:42:23.967Z,43.70
2019-04-24T13:43:51.709Z,43.58
2019-04-24T13:46:26.144Z,41.91
2019-04-24T13:47:21.847Z,42.79
2019-04-24T13:48:23.613Z,42.90
2019-04-24T13:51:13.753Z,40.89
2019-04-24T13:53:18.414Z,40.60
2019-04-24T13:55:21.742Z,38.48
2019-04-24T13:56:35.967Z,39.94
2019-04-24T13:57:15.181Z,38.55
2019-04-24T13:58:26.781Z,42.07
2019-04-24T13:59:21.487Z,40.14
2019-04-24T14:00:33.733Z,38.90
2019-04-24T14:01:33.529Z,39.94
2019-04-24T14:02:31.256Z,39.67
2019-04-24T14:04:15.792Z,40.16
2019-04-24T14:05:16.862Z,40.17
2019-04-24T14:06:27.225Z,40.68
2019-04-24T14:09:28.662Z,41.23
2019-04-24T14:13:35.046Z,37.54
2019-04-24T14:16:16.537Z,39.76
2019-04-24T14:17:21.114Z,40.21
2019-04-24T14:21:33.776Z,44.04
2019-04-24T14:22:13.590Z,44.65
2019-04-24T14:23:22.072Z,42.41
2019-04-24T14:24:20.268Z,42.43
2019-04-24T14:26:23.125Z,43.89
2019-04-24T14:27:18.885Z,42.80
2019-04-24T14:29:18.747Z,45.01
2019-04-24T14:30:23.685Z,44.35
2019-04-24T14:31:17.573Z,43.87
2019-04-24T14:34:34.884Z,45.01
2019-04-24T14:36:22.151Z,44.14
2019-04-24T14:37:17.238Z,42.58
2019-04-24T14:40:21.793Z,43.54
2019-04-24T14:42:22.429Z,46.15
2019-04-24T14:43:30.156Z,43.12
2019-04-24T14:44:33.447Z,44.00
2019-04-24T14:45:31.202Z,42.83
2019-04-24T14:46:19.760Z,44.09
2019-04-24T14:48:13.769Z,44.24
2019-04-24T14:49:37.345Z,43.75
2019-04-24T14:50:26.377Z,42.08
2019-04-24T14:51:19.189Z,41.96
2019-04-24T14:52:28.818Z,43.90
2019-04-24T14:53:09.668Z,42.44
2019-04-24T14:54:16.079Z,41.67
2019-04-24T14:56:13.337Z,41.08
2019-04-24T14:57:16.891Z,42.43
2019-04-24T14:58:10.690Z,43.80
2019-04-24T14:59:20.693Z,44.27
2019-04-24T15:01:19.313Z,43.08
2019-04-24T15:02:17.632Z,43.47
2019-04-24T15:03:13.082Z,44.73
2019-04-24T15:04:15.090Z,43.86
2019-04-24T15:05:22.043Z,43.86
2019-04-24T15:06:23.692Z,44.92
2019-04-24T15:08:17.402Z,44.42
2019-04-24T15:09:24.150Z,44.34
2019-04-24T15:10:30.295Z,43.37
2019-04-24T15:11:10.946Z,42.77
2019-04-24T15:12:17.631Z,44.83
2019-04-24T15:13:19.637Z,44.27
2019-04-24T15:14:23.028Z,42.71
2019-04-24T15:15:24.678Z,42.61
2019-04-24T15:17:14.331Z,40.77
2019-04-24T15:18:11.116Z,43.30
2019-04-24T15:19:28.894Z,45.82
2019-04-24T15:20:13.750Z,43.22
2019-04-24T15:22:20.150Z,42.95
2019-04-24T15:23:34.508Z,44.51
2019-04-24T15:24:35.131Z,42.49
2019-04-24T15:26:19.125Z,43.46
2019-04-24T15:27:19.144Z,41.10
2019-04-24T15:29:25.598Z,42.54
2019-04-24T15:30:09.535Z,42.83
2019-04-24T15:31:10.358Z,45.94
2019-04-24T15:33:27.851Z,44.65
2019-04-24T15:34:16.813Z,43.68
2019-04-24T15:35:20.595Z,44.85
2019-04-24T15:37:18.965Z,45.43
2019-04-24T15:38:15.147Z,43.78
2019-04-24T15:39:13.688Z,45.43
2019-04-24T15:40:35.492Z,43.78
2019-04-24T15:41:22.685Z,44.07
2019-04-24T15:42:09.242Z,44.07
2019-04-24T15:43:18.577Z,43.98
2019-04-24T15:44:06.915Z,43.59
2019-04-24T15:45:14.429Z,43.88
2019-04-24T15:46:08.620Z,44.07
2019-04-24T15:48:17.174Z,44.64
2019-04-24T15:49:12.603Z,44.34
2019-04-24T15:50:17.676Z,45.21
2019-04-24T15:51:16.512Z,44.83
2019-04-24T15:51:41.929Z,45.20
2019-04-24T15:52:41.895Z,46.16
2019-04-24T15:53:41.803Z,45.47
2019-04-24T15:54:41.731Z,46.24
2019-04-24T15:55:41.666Z,47.11
2019-04-24T15:56:41.600Z,47.60
2019-04-24T15:57:43.350Z,46.53
2019-04-24T15:58:53.384Z,47.40
2019-04-24T16:00:06.707Z,49.15
2019-04-24T16:01:20.552Z,48.66
2019-04-24T16:02:13.923Z,48.18
2019-04-24T16:03:13.081Z,47.62
2019-04-24T16:04:31.415Z,46.98
2019-04-24T16:04:56.727Z,46.33
2019-04-24T16:05:41.009Z,45.50
2019-04-24T16:06:40.939Z,45.54
2019-04-24T16:07:40.874Z,43.13
2019-04-24T16:08:40.808Z,44.05
2019-04-24T16:09:40.745Z,44.19
2019-04-24T16:10:40.679Z,41.77
2019-04-24T16:11:40.614Z,40.92
2019-04-24T16:12:40.550Z,40.25
2019-04-24T16:13:48.555Z,37.62
2019-04-24T16:14:58.298Z,39.82
2019-04-24T16:17:28.150Z,40.68
2019-04-24T16:18:09.749Z,42.60
2019-04-24T16:21:14.142Z,44.58
2019-04-24T16:23:12.635Z,44.85
2019-04-24T16:25:10.914Z,46.07
2019-04-24T16:26:06.172Z,44.71
2019-04-24T16:27:14.563Z,44.98
2019-04-24T16:29:10.617Z,46.14
2019-04-24T16:33:11.463Z,51.84
2019-04-24T16:34:07.895Z,52.51
2019-04-24T16:35:22.872Z,50.94
2019-04-24T16:37:07.805Z,54.33
2019-04-24T16:38:25.507Z,55.98
2019-04-24T16:39:09.012Z,55.40
2019-04-24T16:41:17.620Z,54.88
2019-04-24T16:42:26.387Z,57.59
2019-04-24T16:44:22.324Z,58.95
2019-04-24T16:46:54.131Z,57.37
2019-04-24T16:49:11.751Z,59.01
2019-04-24T16:51:18.113Z,60.82
2019-04-24T16:52:08.454Z,60.82
2019-04-24T16:53:12.431Z,63.31
2019-04-24T16:55:12.016Z,57.77
2019-04-24T16:56:09.959Z,54.71
2019-04-24T16:57:00.901Z,53.71
2019-04-24T16:58:11.502Z,56.24
2019-04-24T16:59:02.401Z,57.65
2019-04-24T17:00:18.249Z,59.75
2019-04-24T17:05:16.539Z,64.43
2019-04-24T17:06:23.965Z,65.81
2019-04-24T17:07:19.864Z,68.28
2019-04-24T17:10:58.569Z,72.43
2019-04-24T17:12:43.538Z,74.26
2019-04-24T17:13:55.518Z,74.64
2019-04-24T17:14:53.927Z,75.12
2019-04-24T17:15:57.144Z,75.65
2019-04-24T17:18:49.374Z,76.57
2019-04-24T20:02:50.512Z,99.99
2019-04-24T20:03:52.035Z,99.99
2019-04-24T20:04:51.829Z,99.99
2019-04-24T20:05:50.087Z,99.99
2019-04-24T20:06:51.469Z,99.99
2019-04-24T20:07:50.723Z,99.99
2019-04-24T20:08:51.309Z,99.99
2019-04-24T20:09:50.056Z,99.99
2019-04-24T20:10:51.151Z,99.99
2019-04-24T20:11:51.234Z,99.99
2019-04-24T20:12:49.541Z,99.99
2019-04-24T20:13:49.462Z,99.99
2019-04-24T20:14:49.384Z,99.99
2019-04-24T20:15:49.395Z,99.99
2019-04-24T20:16:49.231Z,99.99
2019-04-24T20:17:49.202Z,99.99
2019-04-24T20:18:49.075Z,99.99
2019-04-24T20:19:49.175Z,99.99
2019-04-24T20:20:49.001Z,99.99
2019-04-24T20:21:48.917Z,99.99
2019-04-24T20:22:48.765Z,99.99
2019-04-24T20:23:49.023Z,99.99
2019-04-24T20:24:49.093Z,99.99
2019-04-24T20:25:48.611Z,99.99
2019-04-24T20:26:48.485Z,99.99
2019-04-24T20:27:48.381Z,99.99
2019-04-24T20:28:48.402Z,99.99
2019-04-24T20:29:48.225Z,99.99
2019-04-24T20:30:48.148Z,99.99
2019-04-24T20:31:48.131Z,99.99
2019-04-24T20:32:48.152Z,99.99
2019-04-24T20:33:47.917Z,99.99
2019-04-24T20:34:47.917Z,99.99
2019-04-24T20:35:47.835Z,99.99
2019-04-24T20:36:47.689Z,99.99
2019-04-24T20:37:47.640Z,99.99
2019-04-24T20:38:47.560Z,99.99
2019-04-24T20:39:47.535Z,99.99
2019-04-24T20:40:47.401Z,99.99
2019-04-24T20:41:47.329Z,99.99
2019-04-24T20:42:47.221Z,99.99
2019-04-24T20:43:47.164Z,99.99
2019-04-24T20:44:47.105Z,99.99
2019-04-24T20:45:47.004Z,99.99
2019-04-24T20:46:46.914Z,99.99
2019-04-24T20:47:46.841Z,99.99
2019-04-24T20:48:46.760Z,99.99
2019-04-24T20:49:46.730Z,99.99
2019-04-24T20:50:46.604Z,99.99
2019-04-24T20:51:46.526Z,99.99
2019-04-24T20:52:47.718Z,99.99
2019-04-24T20:53:46.372Z,99.99
2019-04-24T20:54:46.332Z,99.99
2019-04-24T20:55:46.246Z,99.99
2019-04-24T20:56:46.142Z,99.99
2019-04-24T20:57:46.063Z,99.99
2019-04-24T20:58:45.984Z,99.99
2019-04-24T20:59:45.942Z,99.99
2019-04-24T21:00:45.838Z,99.99
2019-04-24T21:01:45.778Z,99.99
2019-04-24T21:02:45.724Z,99.99
2019-04-24T21:03:46.429Z,99.99
2019-04-24T21:04:45.520Z,99.99
2019-04-24T21:05:45.442Z,99.99
2019-04-24T21:06:45.363Z,99.99
2019-04-24T21:07:45.315Z,99.99
2019-04-24T21:08:45.210Z,99.99
2019-04-24T21:09:45.133Z,99.99
2019-04-24T21:10:45.053Z,99.99
2019-04-24T21:11:44.987Z,99.99
2019-04-24T21:12:44.899Z,99.99
2019-04-24T21:13:44.876Z,99.99
2019-04-24T21:14:44.774Z,99.99
2019-04-24T21:15:46.092Z,99.99
2019-04-24T21:16:44.586Z,99.99
2019-04-24T21:17:44.510Z,99.99
2019-04-24T21:18:44.431Z,99.99
2019-04-24T21:19:44.353Z,99.99
2019-04-24T21:20:44.281Z,99.99
2019-04-24T21:21:44.197Z,99.99
2019-04-24T21:22:44.124Z,99.99
2019-04-24T21:23:53.831Z,99.99
2019-04-24T21:24:43.966Z,99.99
2019-04-24T21:25:43.887Z,99.99
2019-04-24T21:26:43.812Z,99.99
2019-04-24T21:27:43.731Z,99.99
2019-04-24T21:28:43.656Z,99.99
2019-04-24T21:29:43.576Z,99.99
2019-04-24T21:30:43.498Z,99.99
2019-04-24T21:31:43.423Z,99.99
2019-04-24T21:32:43.344Z,99.99
2019-04-24T21:33:43.264Z,99.99
2019-04-24T21:34:43.187Z,99.99
2019-04-24T21:35:43.110Z,99.99
2019-04-24T21:36:43.031Z,99.99
2019-04-24T21:37:42.952Z,99.99
2019-04-24T21:38:43.482Z,99.99
2019-04-24T21:39:42.798Z,99.99
2019-04-24T21:40:42.720Z,99.99
2019-04-24T21:41:42.643Z,99.99
2019-04-24T21:42:42.564Z,99.99
2019-04-24T21:44:26.261Z,99.99
2019-04-24T21:45:25.559Z,99.99
2019-04-24T21:46:28.167Z,99.99
2019-04-24T21:47:24.950Z,99.99
2019-04-24T21:48:26.045Z,99.99
2019-04-24T21:49:24.581Z,99.99
2019-04-24T21:50:24.501Z,99.99
2019-04-24T21:51:24.423Z,99.99
2019-04-24T21:52:24.395Z,99.99
2019-04-24T21:53:24.588Z,99.99
2019-04-24T21:54:24.504Z,99.99
2019-04-24T21:55:24.797Z,99.99
2019-04-24T21:56:24.987Z,99.99
2019-04-24T21:57:24.809Z,99.99
2019-04-24T21:58:24.405Z,99.99
2019-04-24T21:59:23.799Z,99.99
2019-04-24T22:00:24.675Z,99.99
2019-04-24T22:01:23.656Z,99.99
2019-04-24T22:02:23.886Z,99.99
2019-04-24T22:03:24.144Z,99.99
2019-04-24T22:04:24.045Z,99.99
2019-04-24T22:05:23.807Z,99.99
2019-04-24T22:06:23.500Z,99.99
2019-04-24T22:07:24.204Z,99.99
2019-04-24T22:08:23.730Z,99.99
2019-04-24T22:09:24.380Z,99.99
2019-04-24T22:10:22.948Z,99.99
2019-04-24T22:11:22.865Z,99.99
2019-04-24T22:12:22.788Z,99.99
2019-04-24T22:13:22.710Z,99.99
2019-04-24T22:14:24.897Z,99.99
2019-04-24T22:15:22.782Z,99.99
2019-04-24T22:16:22.477Z,99.99
2019-04-24T22:17:22.403Z,99.99
2019-04-24T22:18:22.323Z,99.99
2019-04-24T22:19:22.253Z,99.99
2019-04-24T22:20:22.164Z,99.99
2019-04-24T22:21:22.090Z,99.99
2019-04-24T22:22:22.009Z,99.99
2019-04-24T22:23:21.930Z,99.99
2019-04-24T22:24:21.852Z,99.99
2019-04-24T22:25:21.775Z,99.99
2019-04-24T22:26:21.697Z,99.99
2019-04-24T22:27:22.140Z,99.99
2019-04-24T22:28:21.790Z,99.99
2019-04-24T22:29:21.946Z,99.99
2019-04-24T22:30:21.386Z,99.99
2019-04-24T22:31:21.307Z,99.99
2019-04-24T22:32:22.063Z,99.99
2019-04-24T22:33:21.151Z,99.99
2019-04-24T22:34:22.331Z,99.99
2019-04-24T22:35:21.849Z,99.99
2019-04-24T22:36:21.926Z,99.99
2019-04-24T22:37:20.838Z,99.99
2019-04-24T22:38:21.270Z,99.99
2019-04-24T22:39:21.502Z,99.99
2019-04-24T22:40:22.365Z,99.99
2019-04-24T22:41:20.527Z,99.99
2019-04-24T22:42:20.450Z,99.99
2019-04-24T22:43:21.754Z,99.99
2019-04-24T22:44:20.292Z,99.99
2019-04-24T22:45:21.516Z,99.99
2019-04-24T22:46:21.276Z,99.99
2019-04-24T22:47:20.055Z,99.99
2019-04-24T22:48:19.978Z,99.99
2019-04-24T22:49:21.346Z,99.99
2019-04-24T22:50:19.823Z,99.99
2019-04-24T22:51:19.743Z,99.99
2019-04-24T22:52:21.588Z,99.99
2019-04-24T22:53:19.586Z,99.99
2019-04-24T22:54:28.953Z,99.99
2019-04-24T22:55:19.429Z,99.99
2019-04-24T22:56:19.354Z,99.99
2019-04-24T22:57:19.272Z,99.99
2019-04-24T22:58:19.219Z,99.99
2019-04-24T22:59:19.142Z,99.99
2019-04-24T23:00:19.037Z,99.99
2019-04-24T23:01:18.959Z,99.99
2019-04-24T23:02:18.879Z,99.99
2019-04-24T23:03:19.134Z,99.99
2019-04-24T23:05:11.639Z,99.99
2019-04-24T23:06:11.129Z,99.99
2019-04-24T23:07:12.354Z,99.99
2019-04-24T23:08:11.176Z,99.99
2019-04-24T23:09:12.112Z,99.99
2019-04-24T23:10:10.844Z,99.99
2019-04-24T23:11:11.860Z,99.99
2019-04-24T23:12:10.658Z,99.99
2019-04-24T23:13:11.707Z,99.99
2019-04-24T23:14:10.500Z,99.99
2019-04-24T23:15:10.436Z,99.99
2019-04-24T23:16:11.220Z,99.99